Sancti Spiritus, Cuba
Current Conditions -  °F | °C
As of 11:50 AM on Thursday 18 Dec 2014 (Local Time) from MUSC Reporting Station
Scattered Clouds Scattered Clouds  
Wind Chill: 77°   Ceiling: Unl
Heat Index: 79°   Visibility: 6mi
Dew Point: 61°   Wind: 13mph
Humidity: 57%   Direction: 80°E
Pressure: 30.15"   Gusts: NA
Location:  21.93°N, 79.44°W
Report Text: MUSC 181550Z 08011KT 050V110 9000 SCT025 25/16 Q1021
Loading
Personal Weather Stations






























Interactive Weather Map New forecast layout! Learn more

10-Day Weather Forecast

Advertisements
Track Severe Weather on mobile